Verifier — MLWN4 — position and weather

sailwx.info

Track history (hours):
 
Tides and Currents Weather Stations Pressure Air Temp Water Temp Dewpoint Dewpoint Depression Visibility Wind Speed Wind Dir Waves Ship Positions

Verifier

Last reported at 2014-Sep-04 15:34 UTC. Time now 2014-Sep-19 19:55 UTC.
Position N 51°30' E 000°50'.
Warning: this ship's position is 15 days out of date.

Length 21 m; draft 2 m.

Type: Port tender. MMSI: 235000932.

Date/timePositionNaut miles runAvg speedWind from/ knotsBaromVisibWave heightAir tempDewpointWater temp
2014-Sep-04 15:34N 51°30' E 000°50'1817.5
2014-Sep-04 14:33N 51°30' E 001°18'2 1.9
2014-Sep-04 13:33N 51°31' E 001°21'2 1.9
2014-Sep-04 12:33N 51°33' E 001°20'1 0.6
2014-Sep-04 11:16N 51°33' E 001°19'2 1.7
2014-Sep-04 10:04N 51°33' E 001°15'917.0
2014-Sep-04 09:33N 51°30' E 001°02'7 0.4
2014-Sep-03 16:33N 51°30' E 000°51'1916.2
2014-Sep-03 15:23N 51°32' E 001°21'0 0.4
2014-Sep-03 14:11N 51°32' E 001°22'1 1.5
2014-Sep-03 13:31N 51°33' E 001°22'0 0.1
2014-Sep-03 12:33N 51°33' E 001°22'0 0.4
2014-Sep-03 11:33N 51°33' E 001°22'2 2.3
2014-Sep-03 10:32N 51°34' E 001°19'8 6.6
2014-Sep-03 09:18N 51°31' E 001°07'12 0.7
2014-Sep-02 16:08N 51°30' E 000°47'1118.1
2014-Sep-02 15:33N 51°30' E 001°04'10 4.7
2014-Sep-02 13:20N 51°36' E 001°19'0 0.3
2014-Sep-02 12:34N 51°36' E 001°19'3 2.5
2014-Sep-02 11:26N 51°33' E 001°19'0 0.2
2014-Sep-02 10:29N 51°33' E 001°19'1010.8
2014-Sep-02 09:33N 51°30' E 001°04'6 0.3
2014-Sep-01 14:34N 51°29' E 000°55'1715.8
2014-Sep-01 13:29N 51°32' E 001°22'0 0.4
2014-Sep-01 12:32N 51°32' E 001°22'0 0.3
2014-Sep-01 11:28N 51°32' E 001°21'4 4.2
2014-Sep-01 10:33N 51°36' E 001°21'9 8.2
2014-Sep-01 09:30N 51°31' E 001°09'  
2014-Aug-26 13:10N 51°30' E 000°49'5 8.0
2014-Aug-26 12:33N 51°29' E 000°56'0 0.3
2014-Aug-26 11:33N 51°29' E 000°56'0 0.4
2014-Aug-26 10:33N 51°29' E 000°56'1 1.0
2014-Aug-26 09:33N 51°29' E 000°55'  
Track history (hours):
 
Tides and Currents Weather Stations Pressure Air Temp Water Temp Dewpoint Dewpoint Depression Visibility Wind Speed Wind Dir Waves Ship Positions

Verifier

Last reported at 2014-Sep-04 15:34 UTC. Time now 2014-Sep-19 19:55 UTC.
Position N 51°30' E 000°50'.
Warning: this ship's position is 15 days out of date.

Length 21 m; draft 2 m.

Type: Port tender. MMSI: 235000932.

Date/timePositionNaut miles runAvg speedWind from/ knotsBaromVisibWave heightAir tempDewpointWater temp
2014-Sep-04 15:34N 51°30' E 000°50'1817.5
2014-Sep-04 14:33N 51°30' E 001°18'2 1.9
2014-Sep-04 13:33N 51°31' E 001°21'2 1.9
2014-Sep-04 12:33N 51°33' E 001°20'1 0.6
2014-Sep-04 11:16N 51°33' E 001°19'2 1.7
2014-Sep-04 10:04N 51°33' E 001°15'917.0
2014-Sep-04 09:33N 51°30' E 001°02'7 0.4
2014-Sep-03 16:33N 51°30' E 000°51'1916.2
2014-Sep-03 15:23N 51°32' E 001°21'0 0.4
2014-Sep-03 14:11N 51°32' E 001°22'1 1.5
2014-Sep-03 13:31N 51°33' E 001°22'0 0.1
2014-Sep-03 12:33N 51°33' E 001°22'0 0.4
2014-Sep-03 11:33N 51°33' E 001°22'2 2.3
2014-Sep-03 10:32N 51°34' E 001°19'8 6.6
2014-Sep-03 09:18N 51°31' E 001°07'12 0.7
2014-Sep-02 16:08N 51°30' E 000°47'1118.1
2014-Sep-02 15:33N 51°30' E 001°04'10 4.7
2014-Sep-02 13:20N 51°36' E 001°19'0 0.3
2014-Sep-02 12:34N 51°36' E 001°19'3 2.5
2014-Sep-02 11:26N 51°33' E 001°19'0 0.2
2014-Sep-02 10:29N 51°33' E 001°19'1010.8
2014-Sep-02 09:33N 51°30' E 001°04'6 0.3
2014-Sep-01 14:34N 51°29' E 000°55'1715.8
2014-Sep-01 13:29N 51°32' E 001°22'0 0.4
2014-Sep-01 12:32N 51°32' E 001°22'0 0.3
2014-Sep-01 11:28N 51°32' E 001°21'4 4.2
2014-Sep-01 10:33N 51°36' E 001°21'9 8.2
2014-Sep-01 09:30N 51°31' E 001°09'  
2014-Aug-26 13:10N 51°30' E 000°49'5 8.0
2014-Aug-26 12:33N 51°29' E 000°56'0 0.3
2014-Aug-26 11:33N 51°29' E 000°56'0 0.4
2014-Aug-26 10:33N 51°29' E 000°56'1 1.0
2014-Aug-26 09:33N 51°29' E 000°55'  

Dump ship's entire track history